sensor_id;sensor_type;location;lat;lon;timestamp;pressure;altitude;pressure_sealevel;temperature
28803;BMP280;15949;55.656;37.422;2024-01-07T00:01:46;99512.00;;;-19.45
28803;BMP280;15949;55.656;37.422;2024-01-07T00:06:53;99522.97;;;-19.58
28803;BMP280;15949;55.656;37.422;2024-01-07T00:11:59;99538.81;;;-19.71
28803;BMP280;15949;55.656;37.422;2024-01-07T00:17:04;99543.00;;;-19.71
28803;BMP280;15949;55.656;37.422;2024-01-07T00:22:10;99552.38;;;-19.86
28803;BMP280;15949;55.656;37.422;2024-01-07T00:27:16;99554.41;;;-19.91
28803;BMP280;15949;55.656;37.422;2024-01-07T00:32:22;99561.84;;;-19.91
28803;BMP280;15949;55.656;37.422;2024-01-07T00:37:27;99571.56;;;-19.99
28803;BMP280;15949;55.656;37.422;2024-01-07T00:42:33;99580.41;;;-19.97
28803;BMP280;15949;55.656;37.422;2024-01-07T00:47:39;99586.88;;;-19.94
28803;BMP280;15949;55.656;37.422;2024-01-07T00:52:45;99598.81;;;-19.99
28803;BMP280;15949;55.656;37.422;2024-01-07T00:57:51;99599.00;;;-20.02
28803;BMP280;15949;55.656;37.422;2024-01-07T01:02:57;99613.00;;;-20.12
28803;BMP280;15949;55.656;37.422;2024-01-07T01:08:04;99621.78;;;-20.19
28803;BMP280;15949;55.656;37.422;2024-01-07T01:13:10;99629.78;;;-20.27
28803;BMP280;15949;55.656;37.422;2024-01-07T01:18:15;99649.91;;;-20.43
28803;BMP280;15949;55.656;37.422;2024-01-07T01:23:21;99652.94;;;-20.62
28803;BMP280;15949;55.656;37.422;2024-01-07T01:28:27;99655.78;;;-20.79
28803;BMP280;15949;55.656;37.422;2024-01-07T01:33:33;99658.78;;;-20.98
28803;BMP280;15949;55.656;37.422;2024-01-07T01:38:38;99673.03;;;-21.01
28803;BMP280;15949;55.656;37.422;2024-01-07T01:43:44;99689.25;;;-21.21
28803;BMP280;15949;55.656;37.422;2024-01-07T01:48:50;99695.78;;;-21.20
28803;BMP280;15949;55.656;37.422;2024-01-07T01:53:56;99707.53;;;-21.23
28803;BMP280;15949;55.656;37.422;2024-01-07T01:59:03;99720.22;;;-21.28
28803;BMP280;15949;55.656;37.422;2024-01-07T02:04:10;99733.41;;;-21.40
28803;BMP280;15949;55.656;37.422;2024-01-07T02:09:16;99728.78;;;-21.45
28803;BMP280;15949;55.656;37.422;2024-01-07T02:14:21;99743.03;;;-21.48
28803;BMP280;15949;55.656;37.422;2024-01-07T02:19:27;99744.19;;;-21.41
28803;BMP280;15949;55.656;37.422;2024-01-07T02:24:33;99740.91;;;-21.42
28803;BMP280;15949;55.656;37.422;2024-01-07T02:29:39;99733.16;;;-21.48
28803;BMP280;15949;55.656;37.422;2024-01-07T02:34:44;99735.38;;;-21.45
28803;BMP280;15949;55.656;37.422;2024-01-07T02:39:52;99738.34;;;-21.40
28803;BMP280;15949;55.656;37.422;2024-01-07T02:44:58;99739.97;;;-21.52
28803;BMP280;15949;55.656;37.422;2024-01-07T02:50:04;99739.78;;;-21.62
28803;BMP280;15949;55.656;37.422;2024-01-07T02:55:10;99761.94;;;-21.85
28803;BMP280;15949;55.656;37.422;2024-01-07T03:00:16;99763.81;;;-21.89
28803;BMP280;15949;55.656;37.422;2024-01-07T03:05:21;99774.75;;;-22.06
28803;BMP280;15949;55.656;37.422;2024-01-07T03:10:27;99789.81;;;-22.23
28803;BMP280;15949;55.656;37.422;2024-01-07T03:15:33;99791.19;;;-22.19
28803;BMP280;15949;55.656;37.422;2024-01-07T03:20:39;99801.34;;;-22.24
28803;BMP280;15949;55.656;37.422;2024-01-07T03:25:44;99800.91;;;-22.16
28803;BMP280;15949;55.656;37.422;2024-01-07T03:30:50;99804.06;;;-22.14
28803;BMP280;15949;55.656;37.422;2024-01-07T03:35:56;99821.41;;;-22.28
28803;BMP280;15949;55.656;37.422;2024-01-07T03:41:02;99816.47;;;-22.28
28803;BMP280;15949;55.656;37.422;2024-01-07T03:46:08;99824.31;;;-22.21
28803;BMP280;15949;55.656;37.422;2024-01-07T03:51:14;99839.69;;;-22.18
28803;BMP280;15949;55.656;37.422;2024-01-07T03:56:19;99844.59;;;-22.31
28803;BMP280;15949;55.656;37.422;2024-01-07T04:01:25;99862.66;;;-22.43
28803;BMP280;15949;55.656;37.422;2024-01-07T04:06:31;99863.91;;;-22.64
28803;BMP280;15949;55.656;37.422;2024-01-07T04:11:41;99856.41;;;-22.63
28803;BMP280;15949;55.656;37.422;2024-01-07T04:16:49;99865.47;;;-22.63
28803;BMP280;15949;55.656;37.422;2024-01-07T04:21:55;99881.09;;;-22.77
28803;BMP280;15949;55.656;37.422;2024-01-07T04:27:00;99874.41;;;-22.89
28803;BMP280;15949;55.656;37.422;2024-01-07T04:32:06;99884.34;;;-23.05
28803;BMP280;15949;55.656;37.422;2024-01-07T04:37:12;99899.88;;;-23.03
28803;BMP280;15949;55.656;37.422;2024-01-07T04:42:17;99896.81;;;-23.22
28803;BMP280;15949;55.656;37.422;2024-01-07T04:47:28;99902.75;;;-23.25
28803;BMP280;15949;55.656;37.422;2024-01-07T04:52:34;99922.09;;;-23.18
28803;BMP280;15949;55.656;37.422;2024-01-07T04:57:40;99934.19;;;-23.28
28803;BMP280;15949;55.656;37.422;2024-01-07T05:02:46;99928.00;;;-23.21
28803;BMP280;15949;55.656;37.422;2024-01-07T05:07:52;99953.72;;;-23.25
28803;BMP280;15949;55.656;37.422;2024-01-07T05:12:58;99952.94;;;-23.41
28803;BMP280;15949;55.656;37.422;2024-01-07T05:18:07;99965.31;;;-23.57
28803;BMP280;15949;55.656;37.422;2024-01-07T05:23:14;99968.97;;;-23.80
28803;BMP280;15949;55.656;37.422;2024-01-07T05:28:20;99981.38;;;-23.97
28803;BMP280;15949;55.656;37.422;2024-01-07T05:33:26;99986.22;;;-23.96
28803;BMP280;15949;55.656;37.422;2024-01-07T05:38:32;99995.28;;;-23.96
28803;BMP280;15949;55.656;37.422;2024-01-07T05:43:38;100009.31;;;-24.14
28803;BMP280;15949;55.656;37.422;2024-01-07T05:48:45;100022.16;;;-24.09
28803;BMP280;15949;55.656;37.422;2024-01-07T05:53:51;100030.97;;;-24.21
28803;BMP280;15949;55.656;37.422;2024-01-07T05:58:57;100040.31;;;-24.27
28803;BMP280;15949;55.656;37.422;2024-01-07T06:04:02;100039.03;;;-24.34
28803;BMP280;15949;55.656;37.422;2024-01-07T06:09:08;100040.31;;;-24.44
28803;BMP280;15949;55.656;37.422;2024-01-07T06:14:14;100058.41;;;-24.28
28803;BMP280;15949;55.656;37.422;2024-01-07T06:19:20;100067.16;;;-24.23
28803;BMP280;15949;55.656;37.422;2024-01-07T06:24:26;100072.00;;;-24.21
28803;BMP280;15949;55.656;37.422;2024-01-07T06:29:32;100062.69;;;-24.14
28803;BMP280;15949;55.656;37.422;2024-01-07T06:34:39;100064.81;;;-24.08
28803;BMP280;15949;55.656;37.422;2024-01-07T06:39:44;100079.34;;;-24.04
28803;BMP280;15949;55.656;37.422;2024-01-07T06:44:50;100088.31;;;-24.19
28803;BMP280;15949;55.656;37.422;2024-01-07T06:49:56;100095.38;;;-24.12
28803;BMP280;15949;55.656;37.422;2024-01-07T06:55:02;100095.13;;;-23.91
28803;BMP280;15949;55.656;37.422;2024-01-07T07:00:08;100108.94;;;-23.88
28803;BMP280;15949;55.656;37.422;2024-01-07T07:05:14;100130.25;;;-23.71
28803;BMP280;15949;55.656;37.422;2024-01-07T07:10:20;100139.97;;;-23.68
28803;BMP280;15949;55.656;37.422;2024-01-07T07:15:25;100141.59;;;-23.52
28803;BMP280;15949;55.656;37.422;2024-01-07T07:20:33;100150.63;;;-23.68
28803;BMP280;15949;55.656;37.422;2024-01-07T07:25:39;100137.78;;;-23.90
28803;BMP280;15949;55.656;37.422;2024-01-07T07:30:44;100135.78;;;-23.99
28803;BMP280;15949;55.656;37.422;2024-01-07T07:35:51;100145.50;;;-23.80
28803;BMP280;15949;55.656;37.422;2024-01-07T07:40:56;100151.69;;;-23.56
28803;BMP280;15949;55.656;37.422;2024-01-07T07:46:02;100158.06;;;-23.52
28803;BMP280;15949;55.656;37.422;2024-01-07T07:51:08;100179.59;;;-23.40
28803;BMP280;15949;55.656;37.422;2024-01-07T07:56:14;100188.03;;;-23.44
28803;BMP280;15949;55.656;37.422;2024-01-07T08:01:20;100199.81;;;-23.17
28803;BMP280;15949;55.656;37.422;2024-01-07T08:06:26;100218.63;;;-22.99
28803;BMP280;15949;55.656;37.422;2024-01-07T08:11:32;100215.19;;;-22.81
28803;BMP280;15949;55.656;37.422;2024-01-07T08:16:38;100220.22;;;-22.98
28803;BMP280;15949;55.656;37.422;2024-01-07T08:21:43;100237.72;;;-23.03
28803;BMP280;15949;55.656;37.422;2024-01-07T08:26:49;100240.69;;;-22.65
28803;BMP280;15949;55.656;37.422;2024-01-07T08:31:55;100246.13;;;-22.44
28803;BMP280;15949;55.656;37.422;2024-01-07T08:37:01;100251.91;;;-22.43
28803;BMP280;15949;55.656;37.422;2024-01-07T08:42:06;100255.75;;;-22.69
28803;BMP280;15949;55.656;37.422;2024-01-07T08:47:13;100254.91;;;-22.54
28803;BMP280;15949;55.656;37.422;2024-01-07T08:52:19;100253.25;;;-22.08
28803;BMP280;15949;55.656;37.422;2024-01-07T08:57:25;100261.44;;;-22.07
28803;BMP280;15949;55.656;37.422;2024-01-07T09:02:31;100266.66;;;-22.28
28803;BMP280;15949;55.656;37.422;2024-01-07T09:07:36;100261.47;;;-22.23
28803;BMP280;15949;55.656;37.422;2024-01-07T09:12:42;100255.22;;;-22.29
28803;BMP280;15949;55.656;37.422;2024-01-07T09:17:48;100259.19;;;-22.26
28803;BMP280;15949;55.656;37.422;2024-01-07T09:22:54;100259.50;;;-22.32
28803;BMP280;15949;55.656;37.422;2024-01-07T09:28:00;100263.00;;;-22.36
28803;BMP280;15949;55.656;37.422;2024-01-07T09:33:06;100264.88;;;-21.96
28803;BMP280;15949;55.656;37.422;2024-01-07T09:38:12;100273.22;;;-21.82
28803;BMP280;15949;55.656;37.422;2024-01-07T09:43:19;100273.44;;;-21.71
28803;BMP280;15949;55.656;37.422;2024-01-07T09:48:25;100284.50;;;-21.34
28803;BMP280;15949;55.656;37.422;2024-01-07T09:53:31;100284.50;;;-21.20
28803;BMP280;15949;55.656;37.422;2024-01-07T09:58:42;100283.25;;;-21.13
28803;BMP280;15949;55.656;37.422;2024-01-07T10:03:48;100285.97;;;-21.46
28803;BMP280;15949;55.656;37.422;2024-01-07T10:08:54;100270.53;;;-21.07
28803;BMP280;15949;55.656;37.422;2024-01-07T10:14:00;100276.00;;;-21.02
28803;BMP280;15949;55.656;37.422;2024-01-07T10:19:07;100295.16;;;-21.19
28803;BMP280;15949;55.656;37.422;2024-01-07T10:24:13;100287.31;;;-21.40
28803;BMP280;15949;55.656;37.422;2024-01-07T10:29:19;100292.34;;;-21.42
28803;BMP280;15949;55.656;37.422;2024-01-07T10:34:28;100301.56;;;-21.30
28803;BMP280;15949;55.656;37.422;2024-01-07T10:39:35;100303.03;;;-21.41
28803;BMP280;15949;55.656;37.422;2024-01-07T10:44:41;100299.50;;;-21.23
28803;BMP280;15949;55.656;37.422;2024-01-07T10:49:50;100300.91;;;-21.19
28803;BMP280;15949;55.656;37.422;2024-01-07T10:54:56;100304.59;;;-20.83
28803;BMP280;15949;55.656;37.422;2024-01-07T11:00:03;100290.94;;;-20.62
28803;BMP280;15949;55.656;37.422;2024-01-07T11:05:20;100296.00;;;-20.64
28803;BMP280;15949;55.656;37.422;2024-01-07T11:10:37;100294.88;;;-20.86
28803;BMP280;15949;55.656;37.422;2024-01-07T11:20:58;100305.34;;;-20.54
28803;BMP280;15949;55.656;37.422;2024-01-07T11:26:04;100321.38;;;-20.60
28803;BMP280;15949;55.656;37.422;2024-01-07T11:31:11;100319.91;;;-20.36
28803;BMP280;15949;55.656;37.422;2024-01-07T11:36:17;100317.44;;;-20.50
28803;BMP280;15949;55.656;37.422;2024-01-07T11:41:24;100318.91;;;-20.60
28803;BMP280;15949;55.656;37.422;2024-01-07T11:46:31;100323.38;;;-20.52
28803;BMP280;15949;55.656;37.422;2024-01-07T11:51:37;100328.34;;;-20.52
28803;BMP280;15949;55.656;37.422;2024-01-07T11:56:43;100328.94;;;-20.49
28803;BMP280;15949;55.656;37.422;2024-01-07T12:01:48;100330.53;;;-20.48
28803;BMP280;15949;55.656;37.422;2024-01-07T12:06:54;100321.78;;;-20.53
28803;BMP280;15949;55.656;37.422;2024-01-07T12:12:00;100335.94;;;-20.29
28803;BMP280;15949;55.656;37.422;2024-01-07T12:17:08;100339.09;;;-20.39
28803;BMP280;15949;55.656;37.422;2024-01-07T12:22:17;100334.84;;;-20.51
28803;BMP280;15949;55.656;37.422;2024-01-07T12:27:23;100340.41;;;-20.89
28803;BMP280;15949;55.656;37.422;2024-01-07T12:32:32;100348.81;;;-21.06
28803;BMP280;15949;55.656;37.422;2024-01-07T12:37:38;100350.94;;;-21.14
28803;BMP280;15949;55.656;37.422;2024-01-07T12:42:43;100350.31;;;-21.03
28803;BMP280;15949;55.656;37.422;2024-01-07T12:47:52;100352.88;;;-21.05
28803;BMP280;15949;55.656;37.422;2024-01-07T12:53:00;100360.13;;;-21.02
28803;BMP280;15949;55.656;37.422;2024-01-07T12:58:06;100374.28;;;-21.04
28803;BMP280;15949;55.656;37.422;2024-01-07T13:03:11;100377.72;;;-21.06
28803;BMP280;15949;55.656;37.422;2024-01-07T13:08:22;100378.09;;;-21.12
28803;BMP280;15949;55.656;37.422;2024-01-07T13:13:31;100378.78;;;-21.24
28803;BMP280;15949;55.656;37.422;2024-01-07T13:18:37;100380.72;;;-21.30
28803;BMP280;15949;55.656;37.422;2024-01-07T13:23:43;100376.16;;;-21.37
28803;BMP280;15949;55.656;37.422;2024-01-07T13:28:49;100379.16;;;-21.46
28803;BMP280;15949;55.656;37.422;2024-01-07T13:33:55;100375.88;;;-21.61
28803;BMP280;15949;55.656;37.422;2024-01-07T13:39:00;100388.97;;;-21.75
28803;BMP280;15949;55.656;37.422;2024-01-07T13:44:07;100382.88;;;-21.83
28803;BMP280;15949;55.656;37.422;2024-01-07T13:49:13;100388.06;;;-21.88
28803;BMP280;15949;55.656;37.422;2024-01-07T13:54:19;100392.53;;;-21.95
28803;BMP280;15949;55.656;37.422;2024-01-07T13:59:25;100394.59;;;-22.18
28803;BMP280;15949;55.656;37.422;2024-01-07T14:04:31;100403.25;;;-22.27
28803;BMP280;15949;55.656;37.422;2024-01-07T14:09:37;100397.22;;;-22.37
28803;BMP280;15949;55.656;37.422;2024-01-07T14:14:42;100402.69;;;-22.32
28803;BMP280;15949;55.656;37.422;2024-01-07T14:19:48;100411.00;;;-22.33
28803;BMP280;15949;55.656;37.422;2024-01-07T14:24:56;100410.91;;;-22.32
28803;BMP280;15949;55.656;37.422;2024-01-07T14:30:01;100416.09;;;-22.36
28803;BMP280;15949;55.656;37.422;2024-01-07T14:35:08;100424.72;;;-22.43
28803;BMP280;15949;55.656;37.422;2024-01-07T14:40:14;100424.84;;;-22.46
28803;BMP280;15949;55.656;37.422;2024-01-07T14:45:20;100420.66;;;-22.62
28803;BMP280;15949;55.656;37.422;2024-01-07T14:50:26;100415.81;;;-22.63
28803;BMP280;15949;55.656;37.422;2024-01-07T14:55:32;100432.50;;;-22.68
28803;BMP280;15949;55.656;37.422;2024-01-07T15:00:37;100434.41;;;-22.73
28803;BMP280;15949;55.656;37.422;2024-01-07T15:05:44;100455.97;;;-22.77
28803;BMP280;15949;55.656;37.422;2024-01-07T15:10:50;100443.00;;;-22.80
28803;BMP280;15949;55.656;37.422;2024-01-07T15:15:55;100450.63;;;-22.85
28803;BMP280;15949;55.656;37.422;2024-01-07T15:21:05;100463.81;;;-22.86
28803;BMP280;15949;55.656;37.422;2024-01-07T15:26:10;100468.69;;;-23.02
28803;BMP280;15949;55.656;37.422;2024-01-07T15:31:17;100452.34;;;-23.04
28803;BMP280;15949;55.656;37.422;2024-01-07T15:36:23;100461.41;;;-23.05
28803;BMP280;15949;55.656;37.422;2024-01-07T15:41:29;100452.66;;;-23.10
28803;BMP280;15949;55.656;37.422;2024-01-07T15:46:34;100452.88;;;-23.15
28803;BMP280;15949;55.656;37.422;2024-01-07T15:51:40;100462.88;;;-23.18
28803;BMP280;15949;55.656;37.422;2024-01-07T15:56:46;100466.66;;;-23.11
28803;BMP280;15949;55.656;37.422;2024-01-07T16:01:51;100478.41;;;-23.16
28803;BMP280;15949;55.656;37.422;2024-01-07T16:06:57;100470.84;;;-22.96
28803;BMP280;15949;55.656;37.422;2024-01-07T16:12:03;100475.66;;;-22.93
28803;BMP280;15949;55.656;37.422;2024-01-07T16:17:10;100477.09;;;-22.89
28803;BMP280;15949;55.656;37.422;2024-01-07T16:22:16;100485.66;;;-22.78
28803;BMP280;15949;55.656;37.422;2024-01-07T16:27:21;100487.25;;;-22.77
28803;BMP280;15949;55.656;37.422;2024-01-07T16:32:27;100486.38;;;-22.76
28803;BMP280;15949;55.656;37.422;2024-01-07T16:37:32;100483.53;;;-22.69
28803;BMP280;15949;55.656;37.422;2024-01-07T16:42:38;100495.53;;;-22.61
28803;BMP280;15949;55.656;37.422;2024-01-07T16:47:44;100499.16;;;-22.68
28803;BMP280;15949;55.656;37.422;2024-01-07T16:52:51;100505.41;;;-22.78
28803;BMP280;15949;55.656;37.422;2024-01-07T16:57:56;100502.06;;;-22.77
28803;BMP280;15949;55.656;37.422;2024-01-07T17:03:02;100498.78;;;-22.78
28803;BMP280;15949;55.656;37.422;2024-01-07T17:08:08;100507.44;;;-22.86
28803;BMP280;15949;55.656;37.422;2024-01-07T17:13:14;100512.66;;;-22.75
28803;BMP280;15949;55.656;37.422;2024-01-07T17:18:20;100515.69;;;-22.70
28803;BMP280;15949;55.656;37.422;2024-01-07T17:23:26;100530.34;;;-22.67
28803;BMP280;15949;55.656;37.422;2024-01-07T17:28:31;100528.34;;;-22.76
28803;BMP280;15949;55.656;37.422;2024-01-07T17:33:38;100545.59;;;-22.94
28803;BMP280;15949;55.656;37.422;2024-01-07T17:38:44;100542.84;;;-22.88
28803;BMP280;15949;55.656;37.422;2024-01-07T17:43:51;100548.72;;;-22.73
28803;BMP280;15949;55.656;37.422;2024-01-07T17:48:58;100562.00;;;-22.75
28803;BMP280;15949;55.656;37.422;2024-01-07T17:54:03;100563.44;;;-22.89
28803;BMP280;15949;55.656;37.422;2024-01-07T17:59:09;100552.00;;;-22.90
28803;BMP280;15949;55.656;37.422;2024-01-07T18:04:16;100559.81;;;-22.99
28803;BMP280;15949;55.656;37.422;2024-01-07T18:09:21;100567.00;;;-23.13
28803;BMP280;15949;55.656;37.422;2024-01-07T18:14:27;100560.44;;;-23.31
28803;BMP280;15949;55.656;37.422;2024-01-07T18:19:34;100563.50;;;-23.26
28803;BMP280;15949;55.656;37.422;2024-01-07T18:24:39;100573.41;;;-23.45
28803;BMP280;15949;55.656;37.422;2024-01-07T18:29:45;100574.78;;;-23.39
28803;BMP280;15949;55.656;37.422;2024-01-07T18:34:51;100587.78;;;-23.36
28803;BMP280;15949;55.656;37.422;2024-01-07T18:39:57;100593.13;;;-23.45
28803;BMP280;15949;55.656;37.422;2024-01-07T18:45:03;100593.03;;;-23.62
28803;BMP280;15949;55.656;37.422;2024-01-07T18:50:09;100602.06;;;-23.63
28803;BMP280;15949;55.656;37.422;2024-01-07T18:55:15;100593.28;;;-23.68
28803;BMP280;15949;55.656;37.422;2024-01-07T19:00:22;100602.75;;;-23.78
28803;BMP280;15949;55.656;37.422;2024-01-07T19:05:27;100593.56;;;-23.74
28803;BMP280;15949;55.656;37.422;2024-01-07T19:10:33;100607.59;;;-23.76
28803;BMP280;15949;55.656;37.422;2024-01-07T19:15:40;100601.91;;;-23.97
28803;BMP280;15949;55.656;37.422;2024-01-07T19:20:45;100609.84;;;-23.91
28803;BMP280;15949;55.656;37.422;2024-01-07T19:25:52;100602.78;;;-24.19
28803;BMP280;15949;55.656;37.422;2024-01-07T19:30:57;100616.31;;;-24.29
28803;BMP280;15949;55.656;37.422;2024-01-07T19:36:03;100613.72;;;-24.26
28803;BMP280;15949;55.656;37.422;2024-01-07T19:41:19;100622.47;;;-24.19
28803;BMP280;15949;55.656;37.422;2024-01-07T19:46:28;100618.94;;;-24.13
28803;BMP280;15949;55.656;37.422;2024-01-07T19:51:36;100622.59;;;-24.01
28803;BMP280;15949;55.656;37.422;2024-01-07T19:56:41;100625.78;;;-23.99
28803;BMP280;15949;55.656;37.422;2024-01-07T20:01:48;100616.66;;;-23.77
28803;BMP280;15949;55.656;37.422;2024-01-07T20:06:54;100616.03;;;-23.62
28803;BMP280;15949;55.656;37.422;2024-01-07T20:12:02;100616.75;;;-23.60
28803;BMP280;15949;55.656;37.422;2024-01-07T20:17:08;100616.84;;;-23.63
28803;BMP280;15949;55.656;37.422;2024-01-07T20:22:13;100620.97;;;-23.62
28803;BMP280;15949;55.656;37.422;2024-01-07T20:27:19;100621.69;;;-23.80
28803;BMP280;15949;55.656;37.422;2024-01-07T20:32:25;100625.78;;;-23.79
28803;BMP280;15949;55.656;37.422;2024-01-07T20:37:31;100623.69;;;-23.88
28803;BMP280;15949;55.656;37.422;2024-01-07T20:42:37;100630.41;;;-23.92
28803;BMP280;15949;55.656;37.422;2024-01-07T20:47:42;100623.34;;;-23.79
28803;BMP280;15949;55.656;37.422;2024-01-07T20:52:50;100625.59;;;-23.74
28803;BMP280;15949;55.656;37.422;2024-01-07T20:57:56;100627.00;;;-23.69
28803;BMP280;15949;55.656;37.422;2024-01-07T21:03:02;100629.72;;;-23.75
28803;BMP280;15949;55.656;37.422;2024-01-07T21:08:08;100629.00;;;-23.97
28803;BMP280;15949;55.656;37.422;2024-01-07T21:13:14;100634.41;;;-24.30
28803;BMP280;15949;55.656;37.422;2024-01-07T21:18:21;100623.63;;;-24.48
28803;BMP280;15949;55.656;37.422;2024-01-07T21:23:26;100625.72;;;-24.60
28803;BMP280;15949;55.656;37.422;2024-01-07T21:28:32;100626.59;;;-24.61
28803;BMP280;15949;55.656;37.422;2024-01-07T21:33:39;100620.56;;;-24.54
28803;BMP280;15949;55.656;37.422;2024-01-07T21:38:45;100629.84;;;-24.39
28803;BMP280;15949;55.656;37.422;2024-01-07T21:43:51;100629.34;;;-24.47
28803;BMP280;15949;55.656;37.422;2024-01-07T21:48:56;100622.84;;;-24.50
28803;BMP280;15949;55.656;37.422;2024-01-07T21:54:02;100635.78;;;-24.44
28803;BMP280;15949;55.656;37.422;2024-01-07T21:59:08;100634.97;;;-24.45
28803;BMP280;15949;55.656;37.422;2024-01-07T22:04:13;100635.38;;;-24.34
28803;BMP280;15949;55.656;37.422;2024-01-07T22:09:19;100640.19;;;-24.31
28803;BMP280;15949;55.656;37.422;2024-01-07T22:14:25;100641.03;;;-24.32
28803;BMP280;15949;55.656;37.422;2024-01-07T22:19:30;100646.50;;;-24.24
28803;BMP280;15949;55.656;37.422;2024-01-07T22:24:36;100641.63;;;-24.47
28803;BMP280;15949;55.656;37.422;2024-01-07T22:29:42;100637.41;;;-24.65
28803;BMP280;15949;55.656;37.422;2024-01-07T22:34:48;100633.66;;;-24.75
28803;BMP280;15949;55.656;37.422;2024-01-07T22:39:53;100645.13;;;-24.74
28803;BMP280;15949;55.656;37.422;2024-01-07T22:44:59;100654.31;;;-24.80
28803;BMP280;15949;55.656;37.422;2024-01-07T22:50:05;100640.34;;;-24.78
28803;BMP280;15949;55.656;37.422;2024-01-07T22:55:11;100647.34;;;-24.90
28803;BMP280;15949;55.656;37.422;2024-01-07T23:00:16;100649.63;;;-24.86
28803;BMP280;15949;55.656;37.422;2024-01-07T23:05:22;100634.06;;;-24.86
28803;BMP280;15949;55.656;37.422;2024-01-07T23:10:28;100634.88;;;-24.86
28803;BMP280;15949;55.656;37.422;2024-01-07T23:15:34;100639.00;;;-24.86
28803;BMP280;15949;55.656;37.422;2024-01-07T23:20:39;100633.19;;;-25.07
28803;BMP280;15949;55.656;37.422;2024-01-07T23:25:46;100637.47;;;-25.12
28803;BMP280;15949;55.656;37.422;2024-01-07T23:30:52;100639.06;;;-25.11
28803;BMP280;15949;55.656;37.422;2024-01-07T23:35:57;100648.72;;;-25.06
28803;BMP280;15949;55.656;37.422;2024-01-07T23:41:04;100658.88;;;-25.14
28803;BMP280;15949;55.656;37.422;2024-01-07T23:46:10;100651.88;;;-25.03
28803;BMP280;15949;55.656;37.422;2024-01-07T23:51:15;100657.81;;;-25.09
28803;BMP280;15949;55.656;37.422;2024-01-07T23:56:21;100665.28;;;-25.10
